sensor_id;sensor_type;location;lat;lon;timestamp;P1;durP1;ratioP1;P2;durP2;ratioP2
5967;SDS011;3010;51.028;4.170;2023-02-28T00:02:22;8.25;;;7.45;;
5967;SDS011;3010;51.028;4.170;2023-02-28T00:04:48;7.90;;;7.03;;
5967;SDS011;3010;51.028;4.170;2023-02-28T00:07:15;7.23;;;6.53;;
5967;SDS011;3010;51.028;4.170;2023-02-28T00:09:41;7.87;;;7.10;;
5967;SDS011;3010;51.028;4.170;2023-02-28T00:12:08;9.67;;;7.23;;
5967;SDS011;3010;51.028;4.170;2023-02-28T00:14:35;8.27;;;7.47;;
5967;SDS011;3010;51.028;4.170;2023-02-28T00:17:01;8.97;;;6.33;;
5967;SDS011;3010;51.028;4.170;2023-02-28T00:19:28;7.37;;;6.67;;
5967;SDS011;3010;51.028;4.170;2023-02-28T00:21:54;7.00;;;6.50;;
5967;SDS011;3010;51.028;4.170;2023-02-28T00:24:21;7.63;;;6.80;;
5967;SDS011;3010;51.028;4.170;2023-02-28T00:26:47;8.07;;;7.40;;
5967;SDS011;3010;51.028;4.170;2023-02-28T00:29:14;8.17;;;7.20;;
5967;SDS011;3010;51.028;4.170;2023-02-28T00:31:41;8.13;;;7.03;;
5967;SDS011;3010;51.028;4.170;2023-02-28T00:34:07;7.13;;;6.60;;
5967;SDS011;3010;51.028;4.170;2023-02-28T00:36:34;8.63;;;7.07;;
5967;SDS011;3010;51.028;4.170;2023-02-28T00:39:00;11.80;;;8.73;;
5967;SDS011;3010;51.028;4.170;2023-02-28T00:41:27;8.27;;;7.47;;
5967;SDS011;3010;51.028;4.170;2023-02-28T00:43:53;7.67;;;6.87;;
5967;SDS011;3010;51.028;4.170;2023-02-28T00:46:20;8.70;;;8.00;;
5967;SDS011;3010;51.028;4.170;2023-02-28T00:48:47;8.10;;;7.40;;
5967;SDS011;3010;51.028;4.170;2023-02-28T00:51:13;9.53;;;7.80;;
5967;SDS011;3010;51.028;4.170;2023-02-28T00:53:40;7.40;;;6.80;;
5967;SDS011;3010;51.028;4.170;2023-02-28T00:56:06;11.23;;;7.60;;
5967;SDS011;3010;51.028;4.170;2023-02-28T00:58:33;7.90;;;7.20;;
5967;SDS011;3010;51.028;4.170;2023-02-28T01:00:59;7.93;;;6.40;;
5967;SDS011;3010;51.028;4.170;2023-02-28T01:03:26;9.27;;;6.60;;
5967;SDS011;3010;51.028;4.170;2023-02-28T01:05:53;9.90;;;8.90;;
5967;SDS011;3010;51.028;4.170;2023-02-28T01:08:19;10.10;;;7.57;;
5967;SDS011;3010;51.028;4.170;2023-02-28T01:10:46;9.33;;;7.40;;
5967;SDS011;3010;51.028;4.170;2023-02-28T01:13:13;8.63;;;7.83;;
5967;SDS011;3010;51.028;4.170;2023-02-28T01:15:40;8.20;;;7.20;;
5967;SDS011;3010;51.028;4.170;2023-02-28T01:18:06;7.80;;;7.10;;
5967;SDS011;3010;51.028;4.170;2023-02-28T01:20:32;10.40;;;7.53;;
5967;SDS011;3010;51.028;4.170;2023-02-28T01:22:59;8.53;;;7.20;;
5967;SDS011;3010;51.028;4.170;2023-02-28T01:25:25;8.57;;;7.77;;
5967;SDS011;3010;51.028;4.170;2023-02-28T01:27:52;10.27;;;7.47;;
5967;SDS011;3010;51.028;4.170;2023-02-28T01:30:18;8.73;;;7.43;;
5967;SDS011;3010;51.028;4.170;2023-02-28T01:32:45;9.23;;;8.32;;
5967;SDS011;3010;51.028;4.170;2023-02-28T01:35:12;8.10;;;7.30;;
5967;SDS011;3010;51.028;4.170;2023-02-28T01:37:38;8.20;;;7.50;;
5967;SDS011;3010;51.028;4.170;2023-02-28T01:40:05;9.07;;;7.43;;
5967;SDS011;3010;51.028;4.170;2023-02-28T01:42:32;9.27;;;8.38;;
5967;SDS011;3010;51.028;4.170;2023-02-28T01:47:38;12.53;;;8.53;;
5967;SDS011;3010;51.028;4.170;2023-02-28T01:50:04;10.10;;;7.17;;
5967;SDS011;3010;51.028;4.170;2023-02-28T01:52:30;8.17;;;7.47;;
5967;SDS011;3010;51.028;4.170;2023-02-28T01:54:56;8.27;;;7.47;;
5967;SDS011;3010;51.028;4.170;2023-02-28T01:57:24;9.67;;;8.40;;
5967;SDS011;3010;51.028;4.170;2023-02-28T01:59:51;11.23;;;7.80;;
5967;SDS011;3010;51.028;4.170;2023-02-28T02:02:22;8.27;;;7.20;;
5967;SDS011;3010;51.028;4.170;2023-02-28T02:04:53;9.57;;;7.33;;
5967;SDS011;3010;51.028;4.170;2023-02-28T02:07:21;10.60;;;9.43;;
5967;SDS011;3010;51.028;4.170;2023-02-28T02:09:47;9.73;;;8.63;;
5967;SDS011;3010;51.028;4.170;2023-02-28T02:12:29;12.13;;;7.37;;
5967;SDS011;3010;51.028;4.170;2023-02-28T02:14:56;8.07;;;6.50;;
5967;SDS011;3010;51.028;4.170;2023-02-28T02:17:42;11.80;;;9.65;;
5967;SDS011;3010;51.028;4.170;2023-02-28T02:20:12;9.00;;;8.10;;
5967;SDS011;3010;51.028;4.170;2023-02-28T02:28:28;11.13;;;7.30;;
5967;SDS011;3010;51.028;4.170;2023-02-28T02:33:46;10.30;;;8.33;;
5967;SDS011;3010;51.028;4.170;2023-02-28T02:36:12;9.40;;;8.13;;
5967;SDS011;3010;51.028;4.170;2023-02-28T02:38:37;9.20;;;8.30;;
5967;SDS011;3010;51.028;4.170;2023-02-28T02:41:16;9.80;;;8.33;;
5967;SDS011;3010;51.028;4.170;2023-02-28T02:43:53;9.13;;;7.83;;
5967;SDS011;3010;51.028;4.170;2023-02-28T02:46:38;10.53;;;8.33;;
5967;SDS011;3010;51.028;4.170;2023-02-28T02:49:05;10.20;;;8.50;;
5967;SDS011;3010;51.028;4.170;2023-02-28T02:51:30;11.47;;;7.80;;
5967;SDS011;3010;51.028;4.170;2023-02-28T02:54:02;11.07;;;8.43;;
5967;SDS011;3010;51.028;4.170;2023-02-28T02:56:27;10.17;;;8.80;;
5967;SDS011;3010;51.028;4.170;2023-02-28T02:58:53;9.93;;;8.80;;
5967;SDS011;3010;51.028;4.170;2023-02-28T03:01:20;13.20;;;10.32;;
5967;SDS011;3010;51.028;4.170;2023-02-28T03:03:56;15.63;;;9.47;;
5967;SDS011;3010;51.028;4.170;2023-02-28T03:06:21;10.83;;;9.00;;
5967;SDS011;3010;51.028;4.170;2023-02-28T03:08:48;14.73;;;9.37;;
5967;SDS011;3010;51.028;4.170;2023-02-28T03:11:15;10.10;;;8.87;;
5967;SDS011;3010;51.028;4.170;2023-02-28T03:13:51;10.93;;;8.87;;
5967;SDS011;3010;51.028;4.170;2023-02-28T03:24:30;13.63;;;9.37;;
5967;SDS011;3010;51.028;4.170;2023-02-28T03:27:04;10.50;;;8.70;;
5967;SDS011;3010;51.028;4.170;2023-02-28T03:29:32;12.50;;;9.80;;
5967;SDS011;3010;51.028;4.170;2023-02-28T03:32:03;11.13;;;8.80;;
5967;SDS011;3010;51.028;4.170;2023-02-28T03:34:26;10.10;;;9.10;;
5967;SDS011;3010;51.028;4.170;2023-02-28T03:36:51;11.27;;;8.80;;
5967;SDS011;3010;51.028;4.170;2023-02-28T03:39:18;10.23;;;8.63;;
5967;SDS011;3010;51.028;4.170;2023-02-28T03:41:56;11.20;;;9.40;;
5967;SDS011;3010;51.028;4.170;2023-02-28T03:44:21;10.43;;;8.53;;
5967;SDS011;3010;51.028;4.170;2023-02-28T03:46:49;14.40;;;9.97;;
5967;SDS011;3010;51.028;4.170;2023-02-28T03:49:26;9.73;;;8.73;;
5967;SDS011;3010;51.028;4.170;2023-02-28T03:51:51;10.23;;;9.00;;
5967;SDS011;3010;51.028;4.170;2023-02-28T03:54:22;12.33;;;9.43;;
5967;SDS011;3010;51.028;4.170;2023-02-28T03:59:27;13.03;;;9.63;;
5967;SDS011;3010;51.028;4.170;2023-02-28T04:01:52;10.73;;;9.37;;
5967;SDS011;3010;51.028;4.170;2023-02-28T04:04:19;12.10;;;8.77;;
5967;SDS011;3010;51.028;4.170;2023-02-28T04:06:45;11.83;;;9.00;;
5967;SDS011;3010;51.028;4.170;2023-02-28T04:09:12;9.93;;;8.93;;
5967;SDS011;3010;51.028;4.170;2023-02-28T04:11:42;14.03;;;8.40;;
5967;SDS011;3010;51.028;4.170;2023-02-28T04:14:06;11.37;;;8.60;;
5967;SDS011;3010;51.028;4.170;2023-02-28T04:16:32;13.97;;;9.27;;
5967;SDS011;3010;51.028;4.170;2023-02-28T04:18:58;10.07;;;8.83;;
5967;SDS011;3010;51.028;4.170;2023-02-28T04:21:28;12.37;;;9.47;;
5967;SDS011;3010;51.028;4.170;2023-02-28T04:23:54;10.93;;;9.20;;
5967;SDS011;3010;51.028;4.170;2023-02-28T04:26:21;9.80;;;8.47;;
5967;SDS011;3010;51.028;4.170;2023-02-28T04:28:47;11.85;;;10.65;;
5967;SDS011;3010;51.028;4.170;2023-02-28T04:31:14;12.70;;;9.93;;
5967;SDS011;3010;51.028;4.170;2023-02-28T04:33:41;12.10;;;10.80;;
5967;SDS011;3010;51.028;4.170;2023-02-28T04:36:07;11.43;;;9.83;;
5967;SDS011;3010;51.028;4.170;2023-02-28T04:38:34;17.00;;;9.27;;
5967;SDS011;3010;51.028;4.170;2023-02-28T04:41:00;10.00;;;8.83;;
5967;SDS011;3010;51.028;4.170;2023-02-28T04:43:27;13.07;;;9.90;;
5967;SDS011;3010;51.028;4.170;2023-02-28T04:45:54;9.53;;;8.63;;
5967;SDS011;3010;51.028;4.170;2023-02-28T04:48:20;10.47;;;8.97;;
5967;SDS011;3010;51.028;4.170;2023-02-28T04:50:47;10.93;;;8.33;;
5967;SDS011;3010;51.028;4.170;2023-02-28T04:53:13;9.47;;;8.23;;
5967;SDS011;3010;51.028;4.170;2023-02-28T04:55:40;10.53;;;8.47;;
5967;SDS011;3010;51.028;4.170;2023-02-28T04:58:06;12.20;;;8.97;;
5967;SDS011;3010;51.028;4.170;2023-02-28T05:00:33;9.77;;;8.57;;
5967;SDS011;3010;51.028;4.170;2023-02-28T05:03:00;11.40;;;9.50;;
5967;SDS011;3010;51.028;4.170;2023-02-28T05:05:26;12.20;;;8.43;;
5967;SDS011;3010;51.028;4.170;2023-02-28T05:07:53;11.23;;;8.90;;
5967;SDS011;3010;51.028;4.170;2023-02-28T05:10:19;9.37;;;8.40;;
5967;SDS011;3010;51.028;4.170;2023-02-28T05:12:46;10.13;;;9.10;;
5967;SDS011;3010;51.028;4.170;2023-02-28T05:15:13;8.87;;;7.77;;
5967;SDS011;3010;51.028;4.170;2023-02-28T05:17:39;14.73;;;10.17;;
5967;SDS011;3010;51.028;4.170;2023-02-28T05:20:06;13.17;;;10.10;;
5967;SDS011;3010;51.028;4.170;2023-02-28T05:22:32;11.93;;;10.23;;
5967;SDS011;3010;51.028;4.170;2023-02-28T05:24:59;14.03;;;10.10;;
5967;SDS011;3010;51.028;4.170;2023-02-28T05:27:26;11.97;;;10.20;;
5967;SDS011;3010;51.028;4.170;2023-02-28T05:29:52;10.10;;;9.10;;
5967;SDS011;3010;51.028;4.170;2023-02-28T05:32:19;12.00;;;9.27;;
5967;SDS011;3010;51.028;4.170;2023-02-28T05:34:46;11.00;;;9.90;;
5967;SDS011;3010;51.028;4.170;2023-02-28T05:37:13;9.87;;;8.87;;
5967;SDS011;3010;51.028;4.170;2023-02-28T05:39:39;10.70;;;9.30;;
5967;SDS011;3010;51.028;4.170;2023-02-28T05:42:05;11.13;;;8.10;;
5967;SDS011;3010;51.028;4.170;2023-02-28T05:44:32;9.53;;;8.33;;
5967;SDS011;3010;51.028;4.170;2023-02-28T05:46:59;11.30;;;10.20;;
5967;SDS011;3010;51.028;4.170;2023-02-28T05:49:25;11.23;;;9.53;;
5967;SDS011;3010;51.028;4.170;2023-02-28T05:51:52;10.73;;;8.93;;
5967;SDS011;3010;51.028;4.170;2023-02-28T05:54:18;15.43;;;8.90;;
5967;SDS011;3010;51.028;4.170;2023-02-28T05:56:45;12.80;;;8.80;;
5967;SDS011;3010;51.028;4.170;2023-02-28T05:59:12;12.47;;;8.87;;
5967;SDS011;3010;51.028;4.170;2023-02-28T06:01:39;9.20;;;8.30;;
5967;SDS011;3010;51.028;4.170;2023-02-28T06:04:06;10.82;;;9.73;;
5967;SDS011;3010;51.028;4.170;2023-02-28T06:06:31;10.70;;;8.67;;
5967;SDS011;3010;51.028;4.170;2023-02-28T06:08:58;10.35;;;9.40;;
5967;SDS011;3010;51.028;4.170;2023-02-28T06:11:24;10.03;;;9.03;;
5967;SDS011;3010;51.028;4.170;2023-02-28T06:13:52;10.23;;;8.67;;
5967;SDS011;3010;51.028;4.170;2023-02-28T06:16:17;9.60;;;8.50;;
5967;SDS011;3010;51.028;4.170;2023-02-28T06:18:44;10.63;;;8.40;;
5967;SDS011;3010;51.028;4.170;2023-02-28T06:21:11;10.63;;;8.63;;
5967;SDS011;3010;51.028;4.170;2023-02-28T06:23:37;10.60;;;8.30;;
5967;SDS011;3010;51.028;4.170;2023-02-28T06:26:04;11.07;;;7.83;;
5967;SDS011;3010;51.028;4.170;2023-02-28T06:28:31;9.63;;;8.23;;
5967;SDS011;3010;51.028;4.170;2023-02-28T06:30:57;8.53;;;7.70;;
5967;SDS011;3010;51.028;4.170;2023-02-28T06:33:24;9.20;;;8.07;;
5967;SDS011;3010;51.028;4.170;2023-02-28T06:35:50;10.20;;;8.50;;
5967;SDS011;3010;51.028;4.170;2023-02-28T06:38:17;11.43;;;8.40;;
5967;SDS011;3010;51.028;4.170;2023-02-28T06:40:44;9.13;;;8.23;;
5967;SDS011;3010;51.028;4.170;2023-02-28T06:43:10;11.63;;;8.30;;
5967;SDS011;3010;51.028;4.170;2023-02-28T06:45:37;10.77;;;8.90;;
5967;SDS011;3010;51.028;4.170;2023-02-28T06:48:03;14.60;;;8.93;;
5967;SDS011;3010;51.028;4.170;2023-02-28T06:50:30;13.00;;;8.67;;
5967;SDS011;3010;51.028;4.170;2023-02-28T06:52:56;10.32;;;9.32;;
5967;SDS011;3010;51.028;4.170;2023-02-28T06:55:23;10.37;;;9.17;;
5967;SDS011;3010;51.028;4.170;2023-02-28T06:57:49;10.57;;;9.45;;
5967;SDS011;3010;51.028;4.170;2023-02-28T07:00:16;12.13;;;8.90;;
5967;SDS011;3010;51.028;4.170;2023-02-28T07:02:43;11.77;;;9.10;;
5967;SDS011;3010;51.028;4.170;2023-02-28T07:05:09;9.23;;;8.27;;
5967;SDS011;3010;51.028;4.170;2023-02-28T07:07:36;10.77;;;8.73;;
5967;SDS011;3010;51.028;4.170;2023-02-28T07:10:02;9.60;;;8.30;;
5967;SDS011;3010;51.028;4.170;2023-02-28T07:12:29;10.00;;;8.73;;
5967;SDS011;3010;51.028;4.170;2023-02-28T07:14:56;9.43;;;8.53;;
5967;SDS011;3010;51.028;4.170;2023-02-28T07:17:22;11.93;;;8.57;;
5967;SDS011;3010;51.028;4.170;2023-02-28T07:19:49;11.40;;;9.30;;
5967;SDS011;3010;51.028;4.170;2023-02-28T07:22:15;10.37;;;8.40;;
5967;SDS011;3010;51.028;4.170;2023-02-28T07:24:42;11.17;;;8.57;;
5967;SDS011;3010;51.028;4.170;2023-02-28T07:27:08;10.70;;;9.40;;
5967;SDS011;3010;51.028;4.170;2023-02-28T07:29:35;11.80;;;8.13;;
5967;SDS011;3010;51.028;4.170;2023-02-28T07:32:02;10.07;;;8.33;;
5967;SDS011;3010;51.028;4.170;2023-02-28T07:34:28;11.33;;;8.97;;
5967;SDS011;3010;51.028;4.170;2023-02-28T07:36:55;12.60;;;8.73;;
5967;SDS011;3010;51.028;4.170;2023-02-28T07:39:21;9.77;;;8.77;;
5967;SDS011;3010;51.028;4.170;2023-02-28T07:41:48;13.57;;;8.50;;
5967;SDS011;3010;51.028;4.170;2023-02-28T07:44:15;10.67;;;9.10;;
5967;SDS011;3010;51.028;4.170;2023-02-28T07:46:41;12.45;;;10.32;;
5967;SDS011;3010;51.028;4.170;2023-02-28T07:49:08;11.17;;;9.20;;
5967;SDS011;3010;51.028;4.170;2023-02-28T07:51:34;13.43;;;8.47;;
5967;SDS011;3010;51.028;4.170;2023-02-28T07:54:01;9.27;;;8.10;;
5967;SDS011;3010;51.028;4.170;2023-02-28T07:56:27;9.50;;;8.10;;
5967;SDS011;3010;51.028;4.170;2023-02-28T07:58:54;11.60;;;7.97;;
5967;SDS011;3010;51.028;4.170;2023-02-28T08:01:21;10.93;;;7.97;;
5967;SDS011;3010;51.028;4.170;2023-02-28T08:03:47;10.93;;;7.83;;
5967;SDS011;3010;51.028;4.170;2023-02-28T08:06:18;9.93;;;7.70;;
5967;SDS011;3010;51.028;4.170;2023-02-28T08:08:43;11.30;;;8.27;;
5967;SDS011;3010;51.028;4.170;2023-02-28T08:11:10;10.27;;;7.27;;
5967;SDS011;3010;51.028;4.170;2023-02-28T08:13:36;7.50;;;6.80;;
5967;SDS011;3010;51.028;4.170;2023-02-28T08:16:03;8.98;;;7.93;;
5967;SDS011;3010;51.028;4.170;2023-02-28T08:18:29;9.10;;;7.60;;
5967;SDS011;3010;51.028;4.170;2023-02-28T08:20:56;8.97;;;7.00;;
5967;SDS011;3010;51.028;4.170;2023-02-28T08:23:23;9.07;;;6.73;;
5967;SDS011;3010;51.028;4.170;2023-02-28T08:25:53;7.30;;;6.70;;
5967;SDS011;3010;51.028;4.170;2023-02-28T08:28:19;8.13;;;6.80;;
5967;SDS011;3010;51.028;4.170;2023-02-28T08:30:45;7.40;;;6.17;;
5967;SDS011;3010;51.028;4.170;2023-02-28T08:33:12;7.03;;;6.33;;
5967;SDS011;3010;51.028;4.170;2023-02-28T08:35:39;5.70;;;5.20;;
5967;SDS011;3010;51.028;4.170;2023-02-28T08:38:05;5.70;;;5.20;;
5967;SDS011;3010;51.028;4.170;2023-02-28T08:40:32;6.13;;;5.63;;
5967;SDS011;3010;51.028;4.170;2023-02-28T08:42:58;5.30;;;4.80;;
5967;SDS011;3010;51.028;4.170;2023-02-28T08:45:25;6.22;;;5.62;;
5967;SDS011;3010;51.028;4.170;2023-02-28T08:47:52;5.80;;;5.30;;
5967;SDS011;3010;51.028;4.170;2023-02-28T08:50:18;7.17;;;5.00;;
5967;SDS011;3010;51.028;4.170;2023-02-28T08:52:45;6.15;;;5.62;;
5967;SDS011;3010;51.028;4.170;2023-02-28T08:55:11;6.25;;;5.65;;
5967;SDS011;3010;51.028;4.170;2023-02-28T08:57:38;7.15;;;5.68;;
5967;SDS011;3010;51.028;4.170;2023-02-28T09:00:05;6.10;;;5.50;;
5967;SDS011;3010;51.028;4.170;2023-02-28T09:02:31;4.87;;;4.50;;
5967;SDS011;3010;51.028;4.170;2023-02-28T09:04:58;8.23;;;4.40;;
5967;SDS011;3010;51.028;4.170;2023-02-28T09:07:24;4.80;;;4.40;;
5967;SDS011;3010;51.028;4.170;2023-02-28T09:09:51;4.80;;;4.40;;
5967;SDS011;3010;51.028;4.170;2023-02-28T09:12:21;4.80;;;3.93;;
5967;SDS011;3010;51.028;4.170;2023-02-28T09:14:47;7.12;;;5.12;;
5967;SDS011;3010;51.028;4.170;2023-02-28T09:17:14;5.97;;;4.70;;
5967;SDS011;3010;51.028;4.170;2023-02-28T09:19:40;4.90;;;4.17;;
5967;SDS011;3010;51.028;4.170;2023-02-28T09:22:07;4.70;;;4.30;;
5967;SDS011;3010;51.028;4.170;2023-02-28T09:24:33;3.80;;;3.53;;
5967;SDS011;3010;51.028;4.170;2023-02-28T09:27:00;5.00;;;4.60;;
5967;SDS011;3010;51.028;4.170;2023-02-28T09:29:27;4.83;;;3.50;;
5967;SDS011;3010;51.028;4.170;2023-02-28T09:31:53;4.07;;;3.80;;
5967;SDS011;3010;51.028;4.170;2023-02-28T09:34:20;5.40;;;4.80;;
5967;SDS011;3010;51.028;4.170;2023-02-28T09:36:46;9.97;;;4.23;;
5967;SDS011;3010;51.028;4.170;2023-02-28T09:39:13;5.17;;;4.33;;
5967;SDS011;3010;51.028;4.170;2023-02-28T09:41:43;4.03;;;3.73;;
5967;SDS011;3010;51.028;4.170;2023-02-28T09:44:18;4.40;;;4.10;;
5967;SDS011;3010;51.028;4.170;2023-02-28T09:46:51;6.70;;;4.13;;
5967;SDS011;3010;51.028;4.170;2023-02-28T09:49:18;4.00;;;3.80;;
5967;SDS011;3010;51.028;4.170;2023-02-28T09:54:14;5.03;;;4.27;;
5967;SDS011;3010;51.028;4.170;2023-02-28T09:56:40;5.05;;;4.70;;
5967;SDS011;3010;51.028;4.170;2023-02-28T10:01:37;4.13;;;3.83;;
5967;SDS011;3010;51.028;4.170;2023-02-28T10:04:36;3.20;;;3.10;;
5967;SDS011;3010;51.028;4.170;2023-02-28T10:07:13;6.47;;;3.70;;
5967;SDS011;3010;51.028;4.170;2023-02-28T10:09:34;10.73;;;3.13;;
5967;SDS011;3010;51.028;4.170;2023-02-28T10:12:02;2.47;;;2.37;;
5967;SDS011;3010;51.028;4.170;2023-02-28T10:14:28;3.65;;;3.45;;
5967;SDS011;3010;51.028;4.170;2023-02-28T10:19:44;3.60;;;3.30;;
5967;SDS011;3010;51.028;4.170;2023-02-28T10:22:33;3.30;;;3.10;;
5967;SDS011;3010;51.028;4.170;2023-02-28T10:24:58;4.10;;;3.37;;
5967;SDS011;3010;51.028;4.170;2023-02-28T10:27:26;3.03;;;2.83;;
5967;SDS011;3010;51.028;4.170;2023-02-28T10:29:55;3.23;;;3.03;;
5967;SDS011;3010;51.028;4.170;2023-02-28T10:32:25;3.10;;;2.90;;
5967;SDS011;3010;51.028;4.170;2023-02-28T10:37:38;2.97;;;2.87;;
5967;SDS011;3010;51.028;4.170;2023-02-28T10:40:05;3.17;;;3.10;;
5967;SDS011;3010;51.028;4.170;2023-02-28T10:42:31;5.10;;;3.60;;
5967;SDS011;3010;51.028;4.170;2023-02-28T10:45:13;3.57;;;3.30;;
5967;SDS011;3010;51.028;4.170;2023-02-28T10:52:53;2.87;;;2.63;;
5967;SDS011;3010;51.028;4.170;2023-02-28T10:55:21;2.67;;;2.57;;
5967;SDS011;3010;51.028;4.170;2023-02-28T10:57:47;3.40;;;3.00;;
5967;SDS011;3010;51.028;4.170;2023-02-28T11:00:15;5.53;;;3.50;;
5967;SDS011;3010;51.028;4.170;2023-02-28T11:02:42;5.17;;;3.40;;
5967;SDS011;3010;51.028;4.170;2023-02-28T11:07:54;4.05;;;3.15;;
5967;SDS011;3010;51.028;4.170;2023-02-28T11:10:21;3.37;;;3.03;;
5967;SDS011;3010;51.028;4.170;2023-02-28T11:12:47;2.93;;;2.73;;
5967;SDS011;3010;51.028;4.170;2023-02-28T11:15:24;3.67;;;2.70;;
5967;SDS011;3010;51.028;4.170;2023-02-28T11:17:53;3.03;;;2.83;;
5967;SDS011;3010;51.028;4.170;2023-02-28T11:20:25;3.10;;;2.90;;
5967;SDS011;3010;51.028;4.170;2023-02-28T11:22:51;2.77;;;2.67;;
5967;SDS011;3010;51.028;4.170;2023-02-28T11:25:28;3.40;;;3.20;;
5967;SDS011;3010;51.028;4.170;2023-02-28T11:27:57;3.10;;;3.00;;
5967;SDS011;3010;51.028;4.170;2023-02-28T11:30:25;2.90;;;2.80;;
5967;SDS011;3010;51.028;4.170;2023-02-28T11:32:49;3.53;;;3.20;;
5967;SDS011;3010;51.028;4.170;2023-02-28T11:37:45;4.20;;;3.00;;
5967;SDS011;3010;51.028;4.170;2023-02-28T11:40:15;3.40;;;3.30;;
5967;SDS011;3010;51.028;4.170;2023-02-28T11:48:21;2.80;;;2.70;;
5967;SDS011;3010;51.028;4.170;2023-02-28T11:53:21;2.97;;;2.83;;
5967;SDS011;3010;51.028;4.170;2023-02-28T11:55:49;3.07;;;2.97;;
5967;SDS011;3010;51.028;4.170;2023-02-28T11:58:29;2.77;;;2.60;;
5967;SDS011;3010;51.028;4.170;2023-02-28T12:01:29;3.20;;;3.00;;
5967;SDS011;3010;51.028;4.170;2023-02-28T12:04:21;2.53;;;2.43;;
5967;SDS011;3010;51.028;4.170;2023-02-28T12:06:50;2.83;;;2.73;;
5967;SDS011;3010;51.028;4.170;2023-02-28T12:09:24;4.13;;;3.07;;
5967;SDS011;3010;51.028;4.170;2023-02-28T12:11:55;5.65;;;3.58;;
5967;SDS011;3010;51.028;4.170;2023-02-28T12:19:48;3.23;;;3.13;;
5967;SDS011;3010;51.028;4.170;2023-02-28T12:22:37;3.13;;;3.00;;
5967;SDS011;3010;51.028;4.170;2023-02-28T12:27:35;3.00;;;2.80;;
5967;SDS011;3010;51.028;4.170;2023-02-28T12:32:46;10.30;;;4.03;;
5967;SDS011;3010;51.028;4.170;2023-02-28T12:35:12;5.10;;;2.97;;
5967;SDS011;3010;51.028;4.170;2023-02-28T12:37:49;9.17;;;3.50;;
5967;SDS011;3010;51.028;4.170;2023-02-28T12:40:18;3.30;;;3.10;;
5967;SDS011;3010;51.028;4.170;2023-02-28T12:42:46;4.13;;;3.73;;
5967;SDS011;3010;51.028;4.170;2023-02-28T12:47:54;3.20;;;3.00;;
5967;SDS011;3010;51.028;4.170;2023-02-28T12:50:17;3.37;;;3.17;;
5967;SDS011;3010;51.028;4.170;2023-02-28T12:52:58;3.43;;;2.93;;
5967;SDS011;3010;51.028;4.170;2023-02-28T12:58:20;3.37;;;3.17;;
5967;SDS011;3010;51.028;4.170;2023-02-28T13:03:43;6.40;;;3.53;;
5967;SDS011;3010;51.028;4.170;2023-02-28T13:06:10;4.33;;;3.30;;
5967;SDS011;3010;51.028;4.170;2023-02-28T13:11:45;3.70;;;3.50;;
5967;SDS011;3010;51.028;4.170;2023-02-28T13:19:32;6.47;;;3.80;;
5967;SDS011;3010;51.028;4.170;2023-02-28T13:21:58;6.73;;;3.70;;
5967;SDS011;3010;51.028;4.170;2023-02-28T13:24:38;8.43;;;4.50;;
5967;SDS011;3010;51.028;4.170;2023-02-28T13:29:39;3.70;;;3.50;;
5967;SDS011;3010;51.028;4.170;2023-02-28T13:34:28;3.60;;;3.40;;
5967;SDS011;3010;51.028;4.170;2023-02-28T13:47:40;2.93;;;2.83;;
5967;SDS011;3010;51.028;4.170;2023-02-28T14:11:31;3.73;;;3.53;;
5967;SDS011;3010;51.028;4.170;2023-02-28T14:13:56;4.32;;;4.10;;
5967;SDS011;3010;51.028;4.170;2023-02-28T14:16:24;11.43;;;4.43;;
5967;SDS011;3010;51.028;4.170;2023-02-28T14:19:00;4.37;;;4.07;;
5967;SDS011;3010;51.028;4.170;2023-02-28T14:21:29;4.13;;;3.83;;
5967;SDS011;3010;51.028;4.170;2023-02-28T14:27:05;3.90;;;3.57;;
5967;SDS011;3010;51.028;4.170;2023-02-28T14:29:39;3.27;;;3.17;;
5967;SDS011;3010;51.028;4.170;2023-02-28T14:32:14;4.10;;;3.90;;
5967;SDS011;3010;51.028;4.170;2023-02-28T14:37:11;3.60;;;3.40;;
5967;SDS011;3010;51.028;4.170;2023-02-28T14:39:36;5.45;;;4.40;;
5967;SDS011;3010;51.028;4.170;2023-02-28T14:42:03;3.80;;;3.60;;
5967;SDS011;3010;51.028;4.170;2023-02-28T14:44:29;5.60;;;4.00;;
5967;SDS011;3010;51.028;4.170;2023-02-28T14:46:59;3.87;;;3.40;;
5967;SDS011;3010;51.028;4.170;2023-02-28T14:49:44;4.83;;;4.30;;
5967;SDS011;3010;51.028;4.170;2023-02-28T14:52:02;8.03;;;3.83;;
5967;SDS011;3010;51.028;4.170;2023-02-28T14:54:30;4.53;;;3.80;;
5967;SDS011;3010;51.028;4.170;2023-02-28T14:56:56;11.17;;;3.73;;
5967;SDS011;3010;51.028;4.170;2023-02-28T15:01:49;5.60;;;4.13;;
5967;SDS011;3010;51.028;4.170;2023-02-28T15:04:26;17.80;;;8.80;;
5967;SDS011;3010;51.028;4.170;2023-02-28T15:07:14;4.23;;;4.03;;
5967;SDS011;3010;51.028;4.170;2023-02-28T15:09:37;4.00;;;3.70;;
5967;SDS011;3010;51.028;4.170;2023-02-28T15:12:03;3.70;;;3.50;;
5967;SDS011;3010;51.028;4.170;2023-02-28T15:14:30;3.70;;;3.50;;
5967;SDS011;3010;51.028;4.170;2023-02-28T15:16:57;3.80;;;3.60;;
5967;SDS011;3010;51.028;4.170;2023-02-28T15:19:24;5.83;;;4.23;;
5967;SDS011;3010;51.028;4.170;2023-02-28T15:21:50;5.28;;;4.45;;
5967;SDS011;3010;51.028;4.170;2023-02-28T15:24:21;7.87;;;4.73;;
5967;SDS011;3010;51.028;4.170;2023-02-28T15:26:46;10.05;;;4.68;;
5967;SDS011;3010;51.028;4.170;2023-02-28T15:29:13;4.33;;;3.97;;
5967;SDS011;3010;51.028;4.170;2023-02-28T15:31:45;5.87;;;3.40;;
5967;SDS011;3010;51.028;4.170;2023-02-28T15:34:53;4.70;;;4.00;;
5967;SDS011;3010;51.028;4.170;2023-02-28T15:36:46;5.00;;;4.63;;
5967;SDS011;3010;51.028;4.170;2023-02-28T15:39:19;9.40;;;4.10;;
5967;SDS011;3010;51.028;4.170;2023-02-28T15:41:47;5.53;;;4.67;;
5967;SDS011;3010;51.028;4.170;2023-02-28T15:44:24;10.57;;;4.35;;
5967;SDS011;3010;51.028;4.170;2023-02-28T15:46:53;4.60;;;4.20;;
5967;SDS011;3010;51.028;4.170;2023-02-28T15:49:17;4.73;;;4.10;;
5967;SDS011;3010;51.028;4.170;2023-02-28T15:51:39;5.23;;;4.77;;
5967;SDS011;3010;51.028;4.170;2023-02-28T15:54:06;9.20;;;4.80;;
5967;SDS011;3010;51.028;4.170;2023-02-28T15:56:33;7.70;;;4.50;;
5967;SDS011;3010;51.028;4.170;2023-02-28T15:59:03;12.77;;;4.13;;
5967;SDS011;3010;51.028;4.170;2023-02-28T16:01:37;7.90;;;4.07;;
5967;SDS011;3010;51.028;4.170;2023-02-28T16:04:05;4.63;;;4.20;;
5967;SDS011;3010;51.028;4.170;2023-02-28T16:06:40;5.90;;;4.60;;
5967;SDS011;3010;51.028;4.170;2023-02-28T16:09:24;4.83;;;4.17;;
5967;SDS011;3010;51.028;4.170;2023-02-28T16:11:51;4.90;;;4.60;;
5967;SDS011;3010;51.028;4.170;2023-02-28T16:14:18;5.40;;;4.65;;
5967;SDS011;3010;51.028;4.170;2023-02-28T16:16:48;7.37;;;4.53;;
5967;SDS011;3010;51.028;4.170;2023-02-28T16:19:13;4.90;;;4.17;;
5967;SDS011;3010;51.028;4.170;2023-02-28T16:21:39;5.03;;;4.53;;
5967;SDS011;3010;51.028;4.170;2023-02-28T16:24:06;4.67;;;4.30;;
5967;SDS011;3010;51.028;4.170;2023-02-28T16:26:33;5.93;;;4.37;;
5967;SDS011;3010;51.028;4.170;2023-02-28T16:29:00;7.40;;;4.53;;
5967;SDS011;3010;51.028;4.170;2023-02-28T16:31:26;8.47;;;4.40;;
5967;SDS011;3010;51.028;4.170;2023-02-28T16:33:53;4.60;;;4.33;;
5967;SDS011;3010;51.028;4.170;2023-02-28T16:36:20;7.70;;;4.30;;
5967;SDS011;3010;51.028;4.170;2023-02-28T16:38:46;8.37;;;5.03;;
5967;SDS011;3010;51.028;4.170;2023-02-28T16:41:14;5.03;;;4.33;;
5967;SDS011;3010;51.028;4.170;2023-02-28T16:43:39;4.87;;;4.23;;
5967;SDS011;3010;51.028;4.170;2023-02-28T16:46:07;4.70;;;4.30;;
5967;SDS011;3010;51.028;4.170;2023-02-28T16:48:32;5.00;;;4.60;;
5967;SDS011;3010;51.028;4.170;2023-02-28T16:50:59;5.23;;;4.73;;
5967;SDS011;3010;51.028;4.170;2023-02-28T16:53:25;5.77;;;5.00;;
5967;SDS011;3010;51.028;4.170;2023-02-28T16:55:52;5.13;;;4.70;;
5967;SDS011;3010;51.028;4.170;2023-02-28T16:58:18;4.60;;;4.27;;
5967;SDS011;3010;51.028;4.170;2023-02-28T17:00:45;5.62;;;5.12;;
5967;SDS011;3010;51.028;4.170;2023-02-28T17:03:33;6.83;;;4.83;;
5967;SDS011;3010;51.028;4.170;2023-02-28T17:05:38;5.80;;;4.57;;
5967;SDS011;3010;51.028;4.170;2023-02-28T17:08:05;7.67;;;5.30;;
5967;SDS011;3010;51.028;4.170;2023-02-28T17:10:31;5.80;;;4.47;;
5967;SDS011;3010;51.028;4.170;2023-02-28T17:12:58;9.40;;;4.93;;
5967;SDS011;3010;51.028;4.170;2023-02-28T17:15:24;12.48;;;5.68;;
5967;SDS011;3010;51.028;4.170;2023-02-28T17:17:51;16.17;;;5.93;;
5967;SDS011;3010;51.028;4.170;2023-02-28T17:20:19;18.97;;;5.17;;